sensor_id;sensor_type;location;lat;lon;timestamp;P1;durP1;ratioP1;P2;durP2;ratioP2
28714;SDS011;15886;49.170;14.572;2022-09-30T01:04:36;13.73;;;9.07;;
28714;SDS011;15886;49.170;14.572;2022-09-30T01:22:39;10.23;;;7.57;;
28714;SDS011;15886;49.170;14.572;2022-09-30T01:40:54;10.23;;;7.85;;
28714;SDS011;15886;49.170;14.572;2022-09-30T01:56:06;13.32;;;6.82;;
28714;SDS011;15886;49.170;14.572;2022-09-30T02:25:36;13.50;;;8.35;;
28714;SDS011;15886;49.170;14.572;2022-09-30T02:31:38;11.50;;;7.30;;
28714;SDS011;15886;49.170;14.572;2022-09-30T02:34:44;13.68;;;7.88;;
28714;SDS011;15886;49.170;14.572;2022-09-30T02:37:36;14.07;;;8.82;;
28714;SDS011;15886;49.170;14.572;2022-09-30T03:35:17;12.25;;;8.23;;
28714;SDS011;15886;49.170;14.572;2022-09-30T03:38:40;10.93;;;7.45;;
28714;SDS011;15886;49.170;14.572;2022-09-30T03:44:54;11.82;;;7.93;;
28714;SDS011;15886;49.170;14.572;2022-09-30T03:47:30;11.30;;;8.07;;
28714;SDS011;15886;49.170;14.572;2022-09-30T03:50:07;12.95;;;8.38;;
28714;SDS011;15886;49.170;14.572;2022-09-30T03:52:37;15.38;;;7.95;;
28714;SDS011;15886;49.170;14.572;2022-09-30T03:55:08;12.07;;;8.23;;
28714;SDS011;15886;49.170;14.572;2022-09-30T03:58:09;11.23;;;7.65;;
28714;SDS011;15886;49.170;14.572;2022-09-30T04:00:59;12.05;;;8.25;;
28714;SDS011;15886;49.170;14.572;2022-09-30T04:03:28;15.60;;;8.60;;
28714;SDS011;15886;49.170;14.572;2022-09-30T04:05:56;13.63;;;8.13;;
28714;SDS011;15886;49.170;14.572;2022-09-30T04:08:25;11.30;;;8.38;;
28714;SDS011;15886;49.170;14.572;2022-09-30T04:10:55;15.07;;;8.68;;
28714;SDS011;15886;49.170;14.572;2022-09-30T04:13:23;11.52;;;8.95;;
28714;SDS011;15886;49.170;14.572;2022-09-30T04:15:53;14.48;;;8.75;;
28714;SDS011;15886;49.170;14.572;2022-09-30T04:18:22;12.18;;;7.95;;
28714;SDS011;15886;49.170;14.572;2022-09-30T04:20:50;15.80;;;8.50;;
28714;SDS011;15886;49.170;14.572;2022-09-30T04:23:18;12.82;;;9.23;;
28714;SDS011;15886;49.170;14.572;2022-09-30T04:25:52;11.98;;;7.75;;
28714;SDS011;15886;49.170;14.572;2022-09-30T04:28:22;11.27;;;8.48;;
28714;SDS011;15886;49.170;14.572;2022-09-30T04:30:59;12.02;;;8.05;;
28714;SDS011;15886;49.170;14.572;2022-09-30T04:33:43;13.55;;;8.85;;
28714;SDS011;15886;49.170;14.572;2022-09-30T04:36:13;15.73;;;8.93;;
28714;SDS011;15886;49.170;14.572;2022-09-30T04:39:05;11.18;;;8.40;;
28714;SDS011;15886;49.170;14.572;2022-09-30T04:41:33;12.10;;;8.68;;
28714;SDS011;15886;49.170;14.572;2022-09-30T04:46:56;10.55;;;8.57;;
28714;SDS011;15886;49.170;14.572;2022-09-30T04:49:27;12.00;;;9.30;;
28714;SDS011;15886;49.170;14.572;2022-09-30T04:51:56;13.73;;;9.80;;
28714;SDS011;15886;49.170;14.572;2022-09-30T04:57:23;12.15;;;9.45;;
28714;SDS011;15886;49.170;14.572;2022-09-30T04:59:52;14.13;;;9.98;;
28714;SDS011;15886;49.170;14.572;2022-09-30T11:35:00;7.70;;;6.03;;
28714;SDS011;15886;49.170;14.572;2022-09-30T12:03:25;9.57;;;7.45;;
28714;SDS011;15886;49.170;14.572;2022-09-30T12:16:59;7.22;;;6.20;;
28714;SDS011;15886;49.170;14.572;2022-09-30T12:20:31;9.73;;;6.57;;
28714;SDS011;15886;49.170;14.572;2022-09-30T12:31:31;7.38;;;5.97;;
28714;SDS011;15886;49.170;14.572;2022-09-30T12:49:13;10.70;;;6.82;;
28714;SDS011;15886;49.170;14.572;2022-09-30T12:51:52;11.25;;;6.10;;
28714;SDS011;15886;49.170;14.572;2022-09-30T12:54:52;7.63;;;6.15;;
28714;SDS011;15886;49.170;14.572;2022-09-30T12:57:30;8.07;;;6.18;;
28714;SDS011;15886;49.170;14.572;2022-09-30T13:00:15;9.27;;;6.20;;
28714;SDS011;15886;49.170;14.572;2022-09-30T13:02:55;9.38;;;5.97;;
28714;SDS011;15886;49.170;14.572;2022-09-30T13:13:55;6.53;;;4.80;;
28714;SDS011;15886;49.170;14.572;2022-09-30T13:19:55;5.47;;;4.22;;
28714;SDS011;15886;49.170;14.572;2022-09-30T13:26:00;4.18;;;3.60;;
28714;SDS011;15886;49.170;14.572;2022-09-30T13:28:38;4.70;;;3.45;;
28714;SDS011;15886;49.170;14.572;2022-09-30T13:34:11;4.93;;;4.40;;
28714;SDS011;15886;49.170;14.572;2022-09-30T13:45:33;8.45;;;4.80;;
28714;SDS011;15886;49.170;14.572;2022-09-30T13:52:06;4.20;;;3.50;;
28714;SDS011;15886;49.170;14.572;2022-09-30T13:55:16;5.60;;;4.15;;
28714;SDS011;15886;49.170;14.572;2022-09-30T14:10:11;8.07;;;5.28;;
28714;SDS011;15886;49.170;14.572;2022-09-30T14:19:03;8.43;;;5.60;;
28714;SDS011;15886;49.170;14.572;2022-09-30T14:21:38;8.30;;;5.60;;
28714;SDS011;15886;49.170;14.572;2022-09-30T14:24:26;10.70;;;6.50;;
28714;SDS011;15886;49.170;14.572;2022-09-30T14:30:25;11.02;;;8.02;;
28714;SDS011;15886;49.170;14.572;2022-09-30T14:33:08;9.25;;;6.47;;
28714;SDS011;15886;49.170;14.572;2022-09-30T14:38:55;7.55;;;5.00;;
28714;SDS011;15886;49.170;14.572;2022-09-30T14:41:29;7.57;;;5.72;;
28714;SDS011;15886;49.170;14.572;2022-09-30T14:43:59;8.35;;;5.28;;
28714;SDS011;15886;49.170;14.572;2022-09-30T14:46:40;7.05;;;5.65;;
28714;SDS011;15886;49.170;14.572;2022-09-30T14:49:38;10.07;;;5.88;;
28714;SDS011;15886;49.170;14.572;2022-09-30T14:53:29;8.95;;;5.65;;
28714;SDS011;15886;49.170;14.572;2022-09-30T14:56:33;6.30;;;5.28;;
28714;SDS011;15886;49.170;14.572;2022-09-30T14:59:31;8.43;;;5.60;;
28714;SDS011;15886;49.170;14.572;2022-09-30T15:02:17;8.93;;;5.30;;
28714;SDS011;15886;49.170;14.572;2022-09-30T15:04:57;5.72;;;5.13;;
28714;SDS011;15886;49.170;14.572;2022-09-30T15:10:19;7.57;;;5.05;;
28714;SDS011;15886;49.170;14.572;2022-09-30T15:13:07;11.18;;;5.97;;
28714;SDS011;15886;49.170;14.572;2022-09-30T15:15:59;8.55;;;6.28;;
28714;SDS011;15886;49.170;14.572;2022-09-30T15:24:44;15.33;;;12.70;;
28714;SDS011;15886;49.170;14.572;2022-09-30T15:27:59;21.88;;;15.73;;
28714;SDS011;15886;49.170;14.572;2022-09-30T15:30:30;14.57;;;12.70;;
28714;SDS011;15886;49.170;14.572;2022-09-30T15:33:13;11.02;;;8.90;;
28714;SDS011;15886;49.170;14.572;2022-09-30T15:35:45;13.23;;;11.07;;
28714;SDS011;15886;49.170;14.572;2022-09-30T15:38:17;11.05;;;7.50;;
28714;SDS011;15886;49.170;14.572;2022-09-30T15:41:06;8.68;;;7.30;;
28714;SDS011;15886;49.170;14.572;2022-09-30T15:43:58;10.80;;;6.70;;
28714;SDS011;15886;49.170;14.572;2022-09-30T15:46:44;10.07;;;6.45;;
28714;SDS011;15886;49.170;14.572;2022-09-30T15:49:52;7.70;;;5.80;;
28714;SDS011;15886;49.170;14.572;2022-09-30T15:52:47;8.95;;;6.05;;
28714;SDS011;15886;49.170;14.572;2022-09-30T15:55:46;8.40;;;6.45;;
28714;SDS011;15886;49.170;14.572;2022-09-30T15:58:34;8.13;;;5.97;;
28714;SDS011;15886;49.170;14.572;2022-09-30T16:01:48;21.25;;;9.20;;
28714;SDS011;15886;49.170;14.572;2022-09-30T16:05:01;12.98;;;8.88;;
28714;SDS011;15886;49.170;14.572;2022-09-30T16:07:31;15.27;;;9.65;;
28714;SDS011;15886;49.170;14.572;2022-09-30T16:10:00;12.18;;;8.90;;
28714;SDS011;15886;49.170;14.572;2022-09-30T16:12:30;11.93;;;7.93;;
28714;SDS011;15886;49.170;14.572;2022-09-30T16:15:10;13.57;;;6.40;;
28714;SDS011;15886;49.170;14.572;2022-09-30T16:17:44;36.72;;;18.52;;
28714;SDS011;15886;49.170;14.572;2022-09-30T16:22:48;178.45;;;80.00;;
28714;SDS011;15886;49.170;14.572;2022-09-30T16:25:22;188.65;;;95.45;;
28714;SDS011;15886;49.170;14.572;2022-09-30T16:28:00;220.77;;;120.38;;
28714;SDS011;15886;49.170;14.572;2022-09-30T16:30:30;108.07;;;68.93;;
28714;SDS011;15886;49.170;14.572;2022-09-30T16:33:04;32.35;;;19.77;;
28714;SDS011;15886;49.170;14.572;2022-09-30T16:35:34;17.13;;;9.88;;
28714;SDS011;15886;49.170;14.572;2022-09-30T16:38:05;14.40;;;6.72;;
28714;SDS011;15886;49.170;14.572;2022-09-30T16:40:33;12.77;;;7.97;;
28714;SDS011;15886;49.170;14.572;2022-09-30T16:43:04;15.95;;;11.40;;
28714;SDS011;15886;49.170;14.572;2022-09-30T16:45:33;16.38;;;10.73;;
28714;SDS011;15886;49.170;14.572;2022-09-30T16:48:15;9.07;;;6.65;;
28714;SDS011;15886;49.170;14.572;2022-09-30T16:51:05;8.90;;;5.75;;
28714;SDS011;15886;49.170;14.572;2022-09-30T16:53:33;7.40;;;4.80;;
28714;SDS011;15886;49.170;14.572;2022-09-30T16:56:15;9.27;;;5.20;;
28714;SDS011;15886;49.170;14.572;2022-09-30T16:58:49;7.97;;;5.05;;
28714;SDS011;15886;49.170;14.572;2022-09-30T17:01:20;8.63;;;5.18;;
28714;SDS011;15886;49.170;14.572;2022-09-30T17:03:49;6.32;;;4.70;;
28714;SDS011;15886;49.170;14.572;2022-09-30T17:06:19;5.95;;;4.97;;
28714;SDS011;15886;49.170;14.572;2022-09-30T17:08:50;7.15;;;5.70;;
28714;SDS011;15886;49.170;14.572;2022-09-30T17:11:23;7.70;;;5.85;;
28714;SDS011;15886;49.170;14.572;2022-09-30T17:14:02;9.18;;;5.63;;
28714;SDS011;15886;49.170;14.572;2022-09-30T17:16:31;9.65;;;5.47;;
28714;SDS011;15886;49.170;14.572;2022-09-30T17:19:00;9.38;;;4.85;;
28714;SDS011;15886;49.170;14.572;2022-09-30T17:21:29;8.52;;;5.18;;
28714;SDS011;15886;49.170;14.572;2022-09-30T17:23:57;8.93;;;4.97;;
28714;SDS011;15886;49.170;14.572;2022-09-30T17:26:26;9.95;;;5.43;;
28714;SDS011;15886;49.170;14.572;2022-09-30T17:28:55;10.07;;;5.65;;
28714;SDS011;15886;49.170;14.572;2022-09-30T17:31:34;8.23;;;5.20;;
28714;SDS011;15886;49.170;14.572;2022-09-30T17:34:03;8.52;;;5.93;;
28714;SDS011;15886;49.170;14.572;2022-09-30T17:36:34;9.48;;;6.38;;
28714;SDS011;15886;49.170;14.572;2022-09-30T17:39:03;7.88;;;6.68;;
28714;SDS011;15886;49.170;14.572;2022-09-30T17:41:35;8.13;;;5.97;;
28714;SDS011;15886;49.170;14.572;2022-09-30T17:44:22;10.18;;;5.43;;
28714;SDS011;15886;49.170;14.572;2022-09-30T17:46:51;10.23;;;6.40;;
28714;SDS011;15886;49.170;14.572;2022-09-30T17:49:30;11.02;;;7.43;;
28714;SDS011;15886;49.170;14.572;2022-09-30T17:51:59;12.20;;;6.97;;
28714;SDS011;15886;49.170;14.572;2022-09-30T17:54:28;10.77;;;6.72;;
28714;SDS011;15886;49.170;14.572;2022-09-30T17:56:58;10.55;;;6.90;;
28714;SDS011;15886;49.170;14.572;2022-09-30T17:59:30;9.27;;;7.30;;
28714;SDS011;15886;49.170;14.572;2022-09-30T18:02:01;10.95;;;7.07;;
28714;SDS011;15886;49.170;14.572;2022-09-30T18:04:30;9.40;;;8.15;;
28714;SDS011;15886;49.170;14.572;2022-09-30T18:07:25;11.95;;;7.75;;
28714;SDS011;15886;49.170;14.572;2022-09-30T18:10:08;12.98;;;9.02;;
28714;SDS011;15886;49.170;14.572;2022-09-30T18:12:39;12.85;;;8.85;;
28714;SDS011;15886;49.170;14.572;2022-09-30T18:15:16;10.82;;;8.50;;
28714;SDS011;15886;49.170;14.572;2022-09-30T18:17:46;13.15;;;8.20;;
28714;SDS011;15886;49.170;14.572;2022-09-30T18:20:15;11.85;;;8.63;;
28714;SDS011;15886;49.170;14.572;2022-09-30T18:22:46;11.85;;;8.85;;
28714;SDS011;15886;49.170;14.572;2022-09-30T18:25:15;21.67;;;9.75;;
28714;SDS011;15886;49.170;14.572;2022-09-30T18:27:56;12.30;;;9.55;;
28714;SDS011;15886;49.170;14.572;2022-09-30T18:30:26;15.85;;;10.02;;
28714;SDS011;15886;49.170;14.572;2022-09-30T18:32:55;39.40;;;12.25;;
28714;SDS011;15886;49.170;14.572;2022-09-30T18:35:25;14.93;;;9.02;;
28714;SDS011;15886;49.170;14.572;2022-09-30T18:37:59;11.20;;;8.75;;
28714;SDS011;15886;49.170;14.572;2022-09-30T18:40:28;12.95;;;8.82;;
28714;SDS011;15886;49.170;14.572;2022-09-30T18:42:57;17.50;;;8.98;;
28714;SDS011;15886;49.170;14.572;2022-09-30T18:45:29;11.80;;;8.48;;
28714;SDS011;15886;49.170;14.572;2022-09-30T18:47:58;11.90;;;7.60;;
28714;SDS011;15886;49.170;14.572;2022-09-30T18:50:28;14.27;;;7.97;;
28714;SDS011;15886;49.170;14.572;2022-09-30T18:52:57;10.50;;;7.93;;
28714;SDS011;15886;49.170;14.572;2022-09-30T18:55:29;9.95;;;7.00;;
28714;SDS011;15886;49.170;14.572;2022-09-30T18:57:58;12.55;;;7.75;;
28714;SDS011;15886;49.170;14.572;2022-09-30T19:00:27;10.00;;;7.90;;
28714;SDS011;15886;49.170;14.572;2022-09-30T19:02:56;9.50;;;7.53;;
28714;SDS011;15886;49.170;14.572;2022-09-30T19:05:25;15.70;;;8.60;;
28714;SDS011;15886;49.170;14.572;2022-09-30T19:08:00;10.18;;;8.82;;
28714;SDS011;15886;49.170;14.572;2022-09-30T19:10:30;16.67;;;10.02;;
28714;SDS011;15886;49.170;14.572;2022-09-30T19:12:59;21.70;;;9.43;;
28714;SDS011;15886;49.170;14.572;2022-09-30T19:15:29;10.65;;;8.70;;
28714;SDS011;15886;49.170;14.572;2022-09-30T19:17:57;13.45;;;9.55;;
28714;SDS011;15886;49.170;14.572;2022-09-30T19:20:26;10.18;;;8.73;;
28714;SDS011;15886;49.170;14.572;2022-09-30T19:22:55;10.35;;;8.13;;
28714;SDS011;15886;49.170;14.572;2022-09-30T19:25:25;11.98;;;8.25;;
28714;SDS011;15886;49.170;14.572;2022-09-30T19:27:54;12.65;;;7.90;;
28714;SDS011;15886;49.170;14.572;2022-09-30T19:30:22;12.48;;;8.23;;
28714;SDS011;15886;49.170;14.572;2022-09-30T19:32:55;16.20;;;8.77;;
28714;SDS011;15886;49.170;14.572;2022-09-30T19:35:29;13.02;;;8.52;;
28714;SDS011;15886;49.170;14.572;2022-09-30T19:38:04;16.63;;;8.20;;
28714;SDS011;15886;49.170;14.572;2022-09-30T19:40:33;11.85;;;9.00;;
28714;SDS011;15886;49.170;14.572;2022-09-30T19:43:02;15.98;;;7.93;;
28714;SDS011;15886;49.170;14.572;2022-09-30T19:45:31;9.00;;;7.53;;
28714;SDS011;15886;49.170;14.572;2022-09-30T19:48:02;12.85;;;8.23;;
28714;SDS011;15886;49.170;14.572;2022-09-30T19:50:31;13.45;;;7.85;;
28714;SDS011;15886;49.170;14.572;2022-09-30T19:53:03;9.65;;;7.70;;
28714;SDS011;15886;49.170;14.572;2022-09-30T19:55:32;11.00;;;8.18;;
28714;SDS011;15886;49.170;14.572;2022-09-30T19:58:09;9.55;;;7.45;;
28714;SDS011;15886;49.170;14.572;2022-09-30T20:00:38;12.48;;;8.07;;
28714;SDS011;15886;49.170;14.572;2022-09-30T20:03:08;10.68;;;7.00;;
28714;SDS011;15886;49.170;14.572;2022-09-30T20:05:38;12.73;;;7.18;;
28714;SDS011;15886;49.170;14.572;2022-09-30T20:08:13;17.20;;;7.45;;
28714;SDS011;15886;49.170;14.572;2022-09-30T20:13:55;11.95;;;8.48;;
28714;SDS011;15886;49.170;14.572;2022-09-30T20:16:48;12.15;;;8.77;;
28714;SDS011;15886;49.170;14.572;2022-09-30T20:19:40;10.10;;;8.15;;
28714;SDS011;15886;49.170;14.572;2022-09-30T20:22:32;12.00;;;8.93;;
28714;SDS011;15886;49.170;14.572;2022-09-30T20:25:03;12.88;;;7.65;;
28714;SDS011;15886;49.170;14.572;2022-09-30T20:27:33;10.52;;;7.78;;
28714;SDS011;15886;49.170;14.572;2022-09-30T20:30:09;14.88;;;8.80;;
28714;SDS011;15886;49.170;14.572;2022-09-30T20:35:41;13.32;;;9.98;;
28714;SDS011;15886;49.170;14.572;2022-09-30T20:42:43;15.57;;;11.48;;
28714;SDS011;15886;49.170;14.572;2022-09-30T20:46:27;17.92;;;11.45;;
28714;SDS011;15886;49.170;14.572;2022-09-30T20:49:52;16.65;;;10.52;;
28714;SDS011;15886;49.170;14.572;2022-09-30T20:52:45;17.92;;;13.98;;
28714;SDS011;15886;49.170;14.572;2022-09-30T20:55:37;17.90;;;11.80;;
28714;SDS011;15886;49.170;14.572;2022-09-30T20:58:49;20.50;;;12.80;;
28714;SDS011;15886;49.170;14.572;2022-09-30T21:01:41;20.48;;;14.27;;
28714;SDS011;15886;49.170;14.572;2022-09-30T21:04:42;20.90;;;14.57;;
28714;SDS011;15886;49.170;14.572;2022-09-30T21:07:29;26.63;;;15.23;;
28714;SDS011;15886;49.170;14.572;2022-09-30T21:10:48;22.92;;;14.43;;
28714;SDS011;15886;49.170;14.572;2022-09-30T21:13:44;14.27;;;11.20;;
28714;SDS011;15886;49.170;14.572;2022-09-30T21:16:33;21.08;;;11.90;;
28714;SDS011;15886;49.170;14.572;2022-09-30T21:19:44;18.05;;;12.25;;
28714;SDS011;15886;49.170;14.572;2022-09-30T21:22:15;17.58;;;12.52;;
28714;SDS011;15886;49.170;14.572;2022-09-30T21:24:52;19.02;;;13.80;;
28714;SDS011;15886;49.170;14.572;2022-09-30T21:27:35;25.13;;;14.57;;
28714;SDS011;15886;49.170;14.572;2022-09-30T21:30:23;32.85;;;18.70;;
28714;SDS011;15886;49.170;14.572;2022-09-30T21:33:08;34.92;;;20.90;;
28714;SDS011;15886;49.170;14.572;2022-09-30T21:35:42;29.08;;;18.55;;
28714;SDS011;15886;49.170;14.572;2022-09-30T21:38:51;24.85;;;14.82;;
28714;SDS011;15886;49.170;14.572;2022-09-30T21:41:28;26.83;;;15.48;;
28714;SDS011;15886;49.170;14.572;2022-09-30T21:44:01;33.03;;;18.15;;
28714;SDS011;15886;49.170;14.572;2022-09-30T21:46:36;28.95;;;18.05;;
28714;SDS011;15886;49.170;14.572;2022-09-30T21:49:17;39.13;;;18.52;;
28714;SDS011;15886;49.170;14.572;2022-09-30T21:51:47;29.33;;;17.02;;
28714;SDS011;15886;49.170;14.572;2022-09-30T21:54:27;21.55;;;14.18;;
28714;SDS011;15886;49.170;14.572;2022-09-30T21:57:05;20.65;;;15.20;;
28714;SDS011;15886;49.170;14.572;2022-09-30T21:59:42;24.23;;;14.93;;
28714;SDS011;15886;49.170;14.572;2022-09-30T22:02:24;17.77;;;13.10;;
28714;SDS011;15886;49.170;14.572;2022-09-30T22:04:57;17.23;;;13.15;;
28714;SDS011;15886;49.170;14.572;2022-09-30T22:07:30;18.48;;;11.68;;
28714;SDS011;15886;49.170;14.572;2022-09-30T22:10:22;18.00;;;11.38;;
28714;SDS011;15886;49.170;14.572;2022-09-30T22:13:24;25.70;;;13.48;;
28714;SDS011;15886;49.170;14.572;2022-09-30T22:16:24;13.75;;;10.25;;
28714;SDS011;15886;49.170;14.572;2022-09-30T22:19:06;15.95;;;12.48;;
28714;SDS011;15886;49.170;14.572;2022-09-30T22:21:40;13.32;;;11.13;;
28714;SDS011;15886;49.170;14.572;2022-09-30T22:24:10;17.13;;;10.77;;
28714;SDS011;15886;49.170;14.572;2022-09-30T22:26:44;13.63;;;10.23;;
28714;SDS011;15886;49.170;14.572;2022-09-30T22:29:19;16.45;;;11.50;;
28714;SDS011;15886;49.170;14.572;2022-09-30T22:32:00;13.77;;;10.40;;
28714;SDS011;15886;49.170;14.572;2022-09-30T22:34:51;15.85;;;11.68;;
28714;SDS011;15886;49.170;14.572;2022-09-30T22:37:48;14.85;;;11.32;;
28714;SDS011;15886;49.170;14.572;2022-09-30T22:40:39;15.93;;;10.80;;
28714;SDS011;15886;49.170;14.572;2022-09-30T22:43:17;12.18;;;10.25;;
28714;SDS011;15886;49.170;14.572;2022-09-30T22:48:45;13.40;;;10.88;;
28714;SDS011;15886;49.170;14.572;2022-09-30T22:51:22;14.77;;;11.65;;
28714;SDS011;15886;49.170;14.572;2022-09-30T22:53:54;15.05;;;10.23;;
28714;SDS011;15886;49.170;14.572;2022-09-30T22:56:40;16.30;;;10.65;;
28714;SDS011;15886;49.170;14.572;2022-09-30T22:59:13;21.55;;;11.82;;
28714;SDS011;15886;49.170;14.572;2022-09-30T23:01:44;16.65;;;10.98;;
28714;SDS011;15886;49.170;14.572;2022-09-30T23:04:14;14.45;;;11.35;;
28714;SDS011;15886;49.170;14.572;2022-09-30T23:06:49;14.07;;;8.90;;
28714;SDS011;15886;49.170;14.572;2022-09-30T23:09:21;13.65;;;10.65;;
28714;SDS011;15886;49.170;14.572;2022-09-30T23:11:53;17.73;;;10.75;;
28714;SDS011;15886;49.170;14.572;2022-09-30T23:14:25;13.88;;;9.80;;
28714;SDS011;15886;49.170;14.572;2022-09-30T23:17:07;19.77;;;9.38;;
28714;SDS011;15886;49.170;14.572;2022-09-30T23:20:10;12.82;;;7.82;;
28714;SDS011;15886;49.170;14.572;2022-09-30T23:22:46;15.40;;;9.82;;
28714;SDS011;15886;49.170;14.572;2022-09-30T23:25:41;11.00;;;8.23;;
28714;SDS011;15886;49.170;14.572;2022-09-30T23:31:20;8.75;;;7.50;;
28714;SDS011;15886;49.170;14.572;2022-09-30T23:41:03;12.18;;;8.05;;
28714;SDS011;15886;49.170;14.572;2022-09-30T23:50:02;10.07;;;7.63;;
28714;SDS011;15886;49.170;14.572;2022-09-30T23:57:29;10.73;;;7.40;;
